createdAt,value
2017-07-24T00:00:19.347Z,1005.47
2017-07-24T00:00:45.506Z,1005.47
2017-07-24T00:01:11.651Z,1005.45
2017-07-24T00:01:37.790Z,1005.45
2017-07-24T00:02:03.927Z,1005.41
2017-07-24T00:02:30.022Z,1005.46
2017-07-24T00:02:56.124Z,1005.44
2017-07-24T00:03:22.292Z,1005.42
2017-07-24T00:03:48.391Z,1005.4
2017-07-24T00:04:14.496Z,1005.37
2017-07-24T00:04:40.619Z,1005.38
2017-07-24T00:05:06.777Z,1005.38
2017-07-24T00:05:32.888Z,1005.4
2017-07-24T00:05:59.040Z,1005.37
2017-07-24T00:06:25.156Z,1005.33
2017-07-24T00:06:51.317Z,1005.35
2017-07-24T00:07:17.442Z,1005.33
2017-07-24T00:07:43.579Z,1005.33
2017-07-24T00:08:09.708Z,1005.34
2017-07-24T00:08:35.851Z,1005.32
2017-07-24T00:09:02.047Z,1005.3
2017-07-24T00:09:28.198Z,1005.27
2017-07-24T00:09:54.334Z,1005.31
2017-07-24T00:10:20.547Z,1005.31
2017-07-24T00:10:46.700Z,1005.29
2017-07-24T00:11:12.818Z,1005.26
2017-07-24T00:11:38.946Z,1005.27
2017-07-24T00:12:05.107Z,1005.28
2017-07-24T00:12:31.267Z,1005.26
2017-07-24T00:12:57.444Z,1005.24
2017-07-24T00:13:23.605Z,1005.23
2017-07-24T00:13:49.747Z,1005.27
2017-07-24T00:14:15.878Z,1005.24
2017-07-24T00:14:42.018Z,1005.25
2017-07-24T00:15:08.198Z,1005.28
2017-07-24T00:15:34.304Z,1005.25
2017-07-24T00:16:00.416Z,1005.23
2017-07-24T00:16:26.540Z,1005.24
2017-07-24T00:16:52.642Z,1005.24
2017-07-24T00:17:18.732Z,1005.2
2017-07-24T00:17:44.827Z,1005.23
2017-07-24T00:18:10.962Z,1005.23
2017-07-24T00:18:37.081Z,1005.23
2017-07-24T00:19:03.217Z,1005.19
2017-07-24T00:19:29.399Z,1005.19
2017-07-24T00:19:55.503Z,1005.18
2017-07-24T00:20:21.696Z,1005.17
2017-07-24T00:20:47.808Z,1005.17
2017-07-24T00:21:13.952Z,1005.18
2017-07-24T00:21:40.060Z,1005.19
2017-07-24T00:22:06.179Z,1005.15
2017-07-24T00:22:32.291Z,1005.17
2017-07-24T00:22:58.428Z,1005.16
2017-07-24T00:23:24.524Z,1005.15
2017-07-24T00:23:50.665Z,1005.14
2017-07-24T00:24:16.799Z,1005.13
2017-07-24T00:24:42.927Z,1005.13
2017-07-24T00:25:09.039Z,1005.14
2017-07-24T00:25:35.171Z,1005.11
2017-07-24T00:26:01.275Z,1005.12
2017-07-24T00:26:27.411Z,1005.12
2017-07-24T00:26:53.581Z,1005.11
2017-07-24T00:27:19.714Z,1005.08
2017-07-24T00:27:45.880Z,1005.05
2017-07-24T00:28:12.000Z,1005.07
2017-07-24T00:28:38.134Z,1005.1
2017-07-24T00:29:04.251Z,1005.08
2017-07-24T00:29:30.391Z,1005.05
2017-07-24T00:29:56.557Z,1005.07
2017-07-24T00:30:22.703Z,1005.05
2017-07-24T00:30:48.837Z,1005.05
2017-07-24T00:31:14.976Z,1005.07
2017-07-24T00:31:41.102Z,1005.05
2017-07-24T00:32:07.286Z,1005.03
2017-07-24T00:32:33.381Z,1005.02
2017-07-24T00:32:59.492Z,1005.02
2017-07-24T00:33:25.604Z,1005.03
2017-07-24T00:33:51.780Z,1005.03
2017-07-24T00:34:17.918Z,1004.99
2017-07-24T00:34:44.026Z,1005
2017-07-24T00:35:10.153Z,1005.02
2017-07-24T00:35:36.295Z,1005.01
2017-07-24T00:36:02.449Z,1005.04
2017-07-24T00:36:28.541Z,1005.04
2017-07-24T00:36:54.672Z,1005
2017-07-24T00:37:20.796Z,1004.98
2017-07-24T00:37:46.888Z,1004.99
2017-07-24T00:38:13.049Z,1004.97
2017-07-24T00:38:39.227Z,1004.99
2017-07-24T00:39:05.318Z,1005.01
2017-07-24T00:39:31.475Z,1004.96
2017-07-24T00:39:57.583Z,1004.97
2017-07-24T00:40:23.695Z,1004.96
2017-07-24T00:40:49.844Z,1004.95
2017-07-24T00:41:15.979Z,1004.93
2017-07-24T00:41:42.094Z,1004.89
2017-07-24T00:42:08.222Z,1004.9
2017-07-24T00:42:34.365Z,1004.92
2017-07-24T00:43:00.517Z,1004.88
2017-07-24T00:43:26.682Z,1004.88
2017-07-24T00:43:52.795Z,1004.85
2017-07-24T00:44:18.967Z,1004.9
2017-07-24T00:44:45.213Z,1004.83
2017-07-24T00:45:11.352Z,1004.83
2017-07-24T00:45:37.499Z,1004.85
2017-07-24T00:46:03.634Z,1004.83
2017-07-24T00:46:29.780Z,1004.8
2017-07-24T00:46:55.895Z,1004.83
2017-07-24T00:47:22.049Z,1004.8
2017-07-24T00:47:48.147Z,1004.8
2017-07-24T00:48:14.282Z,1004.78
2017-07-24T00:48:40.376Z,1004.79
2017-07-24T00:49:06.543Z,1004.78
2017-07-24T00:49:32.706Z,1004.79
2017-07-24T00:49:58.826Z,1004.75
2017-07-24T00:50:24.967Z,1004.77
2017-07-24T00:50:51.160Z,1004.75
2017-07-24T00:51:17.310Z,1004.76
2017-07-24T00:51:43.449Z,1004.73
2017-07-24T00:52:09.582Z,1004.7
2017-07-24T00:52:35.708Z,1004.73
2017-07-24T00:53:01.834Z,1004.69
2017-07-24T00:53:27.953Z,1004.75
2017-07-24T00:53:54.067Z,1004.7
2017-07-24T00:54:20.253Z,1004.71
2017-07-24T00:54:46.349Z,1004.68
2017-07-24T00:55:12.439Z,1004.69
2017-07-24T00:55:38.544Z,1004.69
2017-07-24T00:56:04.726Z,1004.72
2017-07-24T00:56:30.867Z,1004.73
2017-07-24T00:56:56.976Z,1004.69
2017-07-24T00:57:23.158Z,1004.73
2017-07-24T00:57:49.269Z,1004.71
2017-07-24T00:58:15.368Z,1004.67
2017-07-24T00:58:41.487Z,1004.66
2017-07-24T00:59:07.645Z,1004.67
2017-07-24T00:59:33.773Z,1004.64
2017-07-24T00:59:59.886Z,1004.62
2017-07-24T01:00:26.045Z,1004.64
2017-07-24T01:00:52.176Z,1004.62
2017-07-24T01:01:18.290Z,1004.62
2017-07-24T01:01:44.491Z,1004.61
2017-07-24T01:02:10.648Z,1004.6
2017-07-24T01:02:36.764Z,1004.62
2017-07-24T01:03:02.909Z,1004.61
2017-07-24T01:03:29.100Z,1004.58
2017-07-24T01:03:55.222Z,1004.57
2017-07-24T01:04:21.429Z,1004.61
2017-07-24T01:04:47.542Z,1004.59
2017-07-24T01:05:13.664Z,1004.61
2017-07-24T01:05:39.799Z,1004.62
2017-07-24T01:06:05.915Z,1004.6
2017-07-24T01:06:32.059Z,1004.62
2017-07-24T01:06:58.167Z,1004.59
2017-07-24T01:07:24.312Z,1004.6
2017-07-24T01:07:50.455Z,1004.62
2017-07-24T01:08:16.588Z,1004.63
2017-07-24T01:08:42.711Z,1004.63
2017-07-24T01:09:08.828Z,1004.64
2017-07-24T01:09:34.986Z,1004.62
2017-07-24T01:10:01.169Z,1004.63
2017-07-24T01:10:27.308Z,1004.63
2017-07-24T01:10:53.435Z,1004.64
2017-07-24T01:11:19.622Z,1004.62
2017-07-24T01:11:45.784Z,1004.6
2017-07-24T01:12:11.958Z,1004.59
2017-07-24T01:12:38.068Z,1004.55
2017-07-24T01:13:04.208Z,1004.6
2017-07-24T01:13:30.303Z,1004.54
2017-07-24T01:13:56.435Z,1004.56
2017-07-24T01:14:22.528Z,1004.5
2017-07-24T01:14:48.640Z,1004.53
2017-07-24T01:15:14.778Z,1004.48
2017-07-24T01:15:40.895Z,1004.52
2017-07-24T01:16:07.033Z,1004.51
2017-07-24T01:16:33.196Z,1004.51
2017-07-24T01:16:59.293Z,1004.51
2017-07-24T01:17:25.458Z,1004.5
2017-07-24T01:17:51.600Z,1004.5
2017-07-24T01:18:17.717Z,1004.47
2017-07-24T01:18:43.880Z,1004.53
2017-07-24T01:19:10.055Z,1004.52
2017-07-24T01:19:36.168Z,1004.51
2017-07-24T01:20:02.328Z,1004.5
2017-07-24T01:20:28.456Z,1004.5
2017-07-24T01:20:54.582Z,1004.52
2017-07-24T01:21:20.678Z,1004.51
2017-07-24T01:21:46.813Z,1004.51
2017-07-24T01:22:12.922Z,1004.51
2017-07-24T01:22:39.020Z,1004.52
2017-07-24T01:23:05.158Z,1004.49
2017-07-24T01:23:31.367Z,1004.49
2017-07-24T01:23:57.495Z,1004.48
2017-07-24T01:24:23.633Z,1004.48
2017-07-24T01:24:49.763Z,1004.5
2017-07-24T01:25:15.923Z,1004.49
2017-07-24T01:25:42.034Z,1004.47
2017-07-24T01:26:08.158Z,1004.49
2017-07-24T01:26:34.302Z,1004.51
2017-07-24T01:27:00.464Z,1004.51
2017-07-24T01:27:26.620Z,1004.52
2017-07-24T01:27:52.733Z,1004.49
2017-07-24T01:28:18.857Z,1004.5
2017-07-24T01:28:45.019Z,1004.46
2017-07-24T01:29:11.105Z,1004.48
2017-07-24T01:29:37.232Z,1004.45
2017-07-24T01:30:03.336Z,1004.48
2017-07-24T01:30:29.451Z,1004.45
2017-07-24T01:30:55.623Z,1004.47
2017-07-24T01:31:21.813Z,1004.45
2017-07-24T01:31:47.932Z,1004.43
2017-07-24T01:32:14.096Z,1004.42
2017-07-24T01:32:40.183Z,1004.43
2017-07-24T01:33:06.306Z,1004.41
2017-07-24T01:33:32.437Z,1004.39
2017-07-24T01:33:58.528Z,1004.39
2017-07-24T01:34:24.673Z,1004.41
2017-07-24T01:34:50.888Z,1004.4
2017-07-24T01:35:17.073Z,1004.38
2017-07-24T01:35:43.211Z,1004.39
2017-07-24T01:36:09.322Z,1004.38
2017-07-24T01:36:35.505Z,1004.37
2017-07-24T01:37:01.642Z,1004.37
2017-07-24T01:37:27.772Z,1004.34
2017-07-24T01:37:53.866Z,1004.37
2017-07-24T01:38:20.000Z,1004.37
2017-07-24T01:38:46.172Z,1004.35
2017-07-24T01:39:12.263Z,1004.33
2017-07-24T01:39:38.428Z,1004.34
2017-07-24T01:40:04.577Z,1004.36
2017-07-24T01:40:30.693Z,1004.33
2017-07-24T01:40:56.826Z,1004.35
2017-07-24T01:41:22.952Z,1004.32
2017-07-24T01:41:49.093Z,1004.36
2017-07-24T01:42:15.248Z,1004.31
2017-07-24T01:42:41.381Z,1004.32
2017-07-24T01:43:07.476Z,1004.28
2017-07-24T01:43:33.601Z,1004.33
2017-07-24T01:43:59.867Z,1004.28
2017-07-24T01:44:26.025Z,1004.3
2017-07-24T01:44:52.153Z,1004.33
2017-07-24T01:45:18.292Z,1004.34
2017-07-24T01:45:44.445Z,1004.32
2017-07-24T01:46:10.551Z,1004.33
2017-07-24T01:46:36.660Z,1004.3
2017-07-24T01:47:02.784Z,1004.29
2017-07-24T01:47:28.918Z,1004.26
2017-07-24T01:47:55.062Z,1004.32
2017-07-24T01:48:21.208Z,1004.29
2017-07-24T01:48:47.482Z,1004.29
2017-07-24T01:49:13.614Z,1004.26
2017-07-24T01:49:39.775Z,1004.31
2017-07-24T01:50:05.935Z,1004.27
2017-07-24T01:50:32.036Z,1004.26
2017-07-24T01:50:58.168Z,1004.25
2017-07-24T01:51:24.309Z,1004.23
2017-07-24T01:51:50.454Z,1004.23
2017-07-24T01:52:16.614Z,1004.24
2017-07-24T01:52:42.708Z,1004.23
2017-07-24T01:53:08.825Z,1004.28
2017-07-24T01:53:34.986Z,1004.23
2017-07-24T01:54:01.191Z,1004.21
2017-07-24T01:54:27.309Z,1004.23
2017-07-24T01:54:53.436Z,1004.22
2017-07-24T01:55:19.591Z,1004.2
2017-07-24T01:55:45.756Z,1004.18
2017-07-24T01:56:11.888Z,1004.17
2017-07-24T01:56:38.047Z,1004.16
2017-07-24T01:57:04.184Z,1004.17
2017-07-24T01:57:30.357Z,1004.13
2017-07-24T01:57:56.516Z,1004.12
2017-07-24T01:58:22.684Z,1004.09
2017-07-24T01:58:48.779Z,1004.12
2017-07-24T01:59:14.941Z,1004.11
2017-07-24T01:59:41.061Z,1004.12
2017-07-24T02:00:07.219Z,1004.07
2017-07-24T02:00:33.376Z,1004.08
2017-07-24T02:00:59.478Z,1004.14
2017-07-24T02:01:25.609Z,1004.05
2017-07-24T02:01:51.752Z,1004.06
2017-07-24T02:02:17.898Z,1004.04
2017-07-24T02:02:44.059Z,1004.05
2017-07-24T02:03:10.204Z,1004.07
2017-07-24T02:03:36.346Z,1004.07
2017-07-24T02:04:02.511Z,1004.03
2017-07-24T02:04:28.657Z,1004.01
2017-07-24T02:04:54.773Z,1003.98
2017-07-24T02:05:20.880Z,1004.02
2017-07-24T02:05:47.022Z,1004.01
2017-07-24T02:06:13.209Z,1003.96
2017-07-24T02:06:39.353Z,1003.98
2017-07-24T02:07:05.467Z,1003.94
2017-07-24T02:07:31.630Z,1003.98
2017-07-24T02:07:57.779Z,1003.96
2017-07-24T02:08:23.920Z,1003.96
2017-07-24T02:08:50.025Z,1003.93
2017-07-24T02:09:16.181Z,1003.95
2017-07-24T02:09:42.297Z,1003.95
2017-07-24T02:10:08.426Z,1003.89
2017-07-24T02:10:34.613Z,1003.9
2017-07-24T02:11:00.779Z,1003.89
2017-07-24T02:11:26.926Z,1003.87
2017-07-24T02:11:53.090Z,1003.85
2017-07-24T02:12:19.196Z,1003.82
2017-07-24T02:12:45.322Z,1003.85
2017-07-24T02:13:11.461Z,1003.84
2017-07-24T02:13:37.616Z,1003.83
2017-07-24T02:14:03.751Z,1003.86
2017-07-24T02:14:29.863Z,1003.85
2017-07-24T02:14:55.963Z,1003.84
2017-07-24T02:15:22.148Z,1003.86
2017-07-24T02:15:48.240Z,1003.84
2017-07-24T02:16:14.386Z,1003.85
2017-07-24T02:16:40.511Z,1003.87
2017-07-24T02:17:06.693Z,1003.9
2017-07-24T02:17:32.827Z,1003.87
2017-07-24T02:17:58.966Z,1003.87
2017-07-24T02:18:25.064Z,1003.86
2017-07-24T02:18:51.172Z,1003.87
2017-07-24T02:19:17.362Z,1003.85
2017-07-24T02:19:43.530Z,1003.86
2017-07-24T02:20:09.662Z,1003.86
2017-07-24T02:20:35.804Z,1003.85
2017-07-24T02:21:01.942Z,1003.84
2017-07-24T02:21:28.104Z,1003.86
2017-07-24T02:21:54.302Z,1003.84
2017-07-24T02:22:20.458Z,1003.82
2017-07-24T02:22:46.600Z,1003.82
2017-07-24T02:23:12.815Z,1003.81
2017-07-24T02:23:39.006Z,1003.84
2017-07-24T02:24:05.175Z,1003.82
2017-07-24T02:24:31.265Z,1003.82
2017-07-24T02:24:57.404Z,1003.85
2017-07-24T02:25:23.579Z,1003.82
2017-07-24T02:25:49.692Z,1003.83
2017-07-24T02:26:15.877Z,1003.82
2017-07-24T02:26:42.004Z,1003.8
2017-07-24T02:27:08.092Z,1003.84
2017-07-24T02:27:34.244Z,1003.84
2017-07-24T02:28:00.334Z,1003.83
2017-07-24T02:28:26.471Z,1003.8
2017-07-24T02:28:52.568Z,1003.81
2017-07-24T02:29:18.657Z,1003.8
2017-07-24T02:29:44.821Z,1003.83
2017-07-24T02:30:10.975Z,1003.83
2017-07-24T02:30:37.115Z,1003.83
2017-07-24T02:31:03.266Z,1003.81
2017-07-24T02:31:29.400Z,1003.8
2017-07-24T02:31:55.512Z,1003.82
2017-07-24T02:32:21.658Z,1003.83
2017-07-24T02:32:47.820Z,1003.83
2017-07-24T02:33:13.933Z,1003.87
2017-07-24T02:33:40.063Z,1003.84
2017-07-24T02:34:06.179Z,1003.83
2017-07-24T02:34:32.333Z,1003.84
2017-07-24T02:34:58.494Z,1003.84
2017-07-24T02:35:24.631Z,1003.86
2017-07-24T02:35:50.782Z,1003.84
2017-07-24T02:36:16.970Z,1003.83
2017-07-24T02:36:43.137Z,1003.82
2017-07-24T02:37:09.256Z,1003.83
2017-07-24T02:37:35.390Z,1003.87
2017-07-24T02:38:01.484Z,1003.79
2017-07-24T02:38:27.622Z,1003.79
2017-07-24T02:38:53.789Z,1003.81
2017-07-24T02:39:19.909Z,1003.79
2017-07-24T02:39:46.051Z,1003.76
2017-07-24T02:40:12.154Z,1003.77
2017-07-24T02:40:38.280Z,1003.73
2017-07-24T02:41:04.443Z,1003.73
2017-07-24T02:41:30.572Z,1003.72
2017-07-24T02:41:56.814Z,1003.71
2017-07-24T02:42:22.927Z,1003.72
2017-07-24T02:42:49.075Z,1003.71
2017-07-24T02:43:15.264Z,1003.71
2017-07-24T02:43:41.381Z,1003.71
2017-07-24T02:44:07.530Z,1003.7
2017-07-24T02:44:33.680Z,1003.68
2017-07-24T02:44:59.835Z,1003.66
2017-07-24T02:45:26.025Z,1003.67
2017-07-24T02:45:52.162Z,1003.69
2017-07-24T02:46:18.365Z,1003.66
2017-07-24T02:46:44.494Z,1003.65
2017-07-24T02:47:10.686Z,1003.67
2017-07-24T02:47:36.855Z,1003.66
2017-07-24T02:48:03.045Z,1003.67
2017-07-24T02:48:29.191Z,1003.68
2017-07-24T02:48:55.351Z,1003.7
2017-07-24T02:49:21.487Z,1003.68
2017-07-24T02:49:47.662Z,1003.7
2017-07-24T02:50:13.817Z,1003.68
2017-07-24T02:50:39.958Z,1003.65
2017-07-24T02:51:06.138Z,1003.67
2017-07-24T02:51:32.347Z,1003.72
2017-07-24T02:51:58.494Z,1003.69
2017-07-24T02:52:24.609Z,1003.7
2017-07-24T02:52:50.803Z,1003.69
2017-07-24T02:53:16.901Z,1003.65
2017-07-24T02:53:43.015Z,1003.66
2017-07-24T02:54:09.201Z,1003.64
2017-07-24T02:54:35.327Z,1003.67
2017-07-24T02:55:01.442Z,1003.63
2017-07-24T02:55:27.573Z,1003.65
2017-07-24T02:55:53.713Z,1003.65
2017-07-24T02:56:19.902Z,1003.64
2017-07-24T02:56:46.025Z,1003.65
2017-07-24T02:57:12.117Z,1003.65
2017-07-24T02:57:38.248Z,1003.62
2017-07-24T02:58:04.378Z,1003.62
2017-07-24T02:58:30.587Z,1003.66
2017-07-24T02:58:56.709Z,1003.64
2017-07-24T02:59:22.850Z,1003.63
2017-07-24T02:59:49.011Z,1003.6
2017-07-24T03:00:15.158Z,1003.63
2017-07-24T03:00:41.274Z,1003.66
2017-07-24T03:01:07.407Z,1003.64
2017-07-24T03:01:33.536Z,1003.62
2017-07-24T03:01:59.675Z,1003.62
2017-07-24T03:02:25.881Z,1003.61
2017-07-24T03:02:51.988Z,1003.58
2017-07-24T03:03:18.098Z,1003.59
2017-07-24T03:03:44.271Z,1003.61
2017-07-24T03:04:10.403Z,1003.59
2017-07-24T03:04:36.517Z,1003.61
2017-07-24T03:05:02.663Z,1003.6
2017-07-24T03:05:28.851Z,1003.6
2017-07-24T03:05:54.997Z,1003.59
2017-07-24T03:06:21.136Z,1003.61
2017-07-24T03:06:47.239Z,1003.6
2017-07-24T03:07:13.412Z,1003.61
2017-07-24T03:07:39.545Z,1003.6
2017-07-24T03:08:05.659Z,1003.58
2017-07-24T03:08:31.807Z,1003.61
2017-07-24T03:08:57.940Z,1003.58
2017-07-24T03:09:24.085Z,1003.56
2017-07-24T03:09:50.224Z,1003.54
2017-07-24T03:10:16.390Z,1003.53
2017-07-24T03:10:42.512Z,1003.56
2017-07-24T03:11:08.603Z,1003.57
2017-07-24T03:11:34.710Z,1003.55
2017-07-24T03:12:00.836Z,1003.56
2017-07-24T03:12:27.005Z,1003.55
2017-07-24T03:12:53.077Z,1003.54
2017-07-24T03:13:19.214Z,1003.56
2017-07-24T03:13:45.349Z,1003.55
2017-07-24T03:14:11.527Z,1003.54
2017-07-24T03:14:37.693Z,1003.55
2017-07-24T03:15:03.826Z,1003.54
2017-07-24T03:15:29.928Z,1003.6
2017-07-24T03:15:56.041Z,1003.55
2017-07-24T03:16:22.169Z,1003.57
2017-07-24T03:16:48.327Z,1003.53
2017-07-24T03:17:14.490Z,1003.55
2017-07-24T03:17:40.662Z,1003.56
2017-07-24T03:18:06.859Z,1003.57
2017-07-24T03:18:33.022Z,1003.6
2017-07-24T03:18:59.177Z,1003.58
2017-07-24T03:19:25.339Z,1003.6
2017-07-24T03:19:51.470Z,1003.59
2017-07-24T03:20:17.576Z,1003.57
2017-07-24T03:20:43.712Z,1003.54
2017-07-24T03:21:09.813Z,1003.56
2017-07-24T03:21:35.946Z,1003.55
2017-07-24T03:22:02.083Z,1003.58
2017-07-24T03:22:28.257Z,1003.55
2017-07-24T03:22:54.391Z,1003.56
2017-07-24T03:23:20.564Z,1003.51
2017-07-24T03:23:46.655Z,1003.52
2017-07-24T03:24:12.764Z,1003.53
2017-07-24T03:24:38.860Z,1003.54
2017-07-24T03:25:04.950Z,1003.55
2017-07-24T03:25:31.110Z,1003.57
2017-07-24T03:25:57.238Z,1003.54
2017-07-24T03:26:23.379Z,1003.53
2017-07-24T03:26:49.509Z,1003.55
2017-07-24T03:27:15.669Z,1003.51
2017-07-24T03:27:41.781Z,1003.51
2017-07-24T03:28:07.879Z,1003.55
2017-07-24T03:28:33.986Z,1003.56
2017-07-24T03:29:00.077Z,1003.54
2017-07-24T03:29:26.234Z,1003.55
2017-07-24T03:29:52.350Z,1003.57
2017-07-24T03:30:18.476Z,1003.59
2017-07-24T03:30:44.721Z,1003.56
2017-07-24T03:31:10.881Z,1003.55
2017-07-24T03:31:37.006Z,1003.55
2017-07-24T03:32:03.115Z,1003.54
2017-07-24T03:32:29.202Z,1003.58
2017-07-24T03:32:55.299Z,1003.54
2017-07-24T03:33:21.458Z,1003.55
2017-07-24T03:33:47.578Z,1003.52
2017-07-24T03:34:13.742Z,1003.53
2017-07-24T03:34:39.872Z,1003.54
2017-07-24T03:35:05.974Z,1003.53
2017-07-24T03:35:32.163Z,1003.54
2017-07-24T03:35:58.306Z,1003.57
2017-07-24T03:36:24.424Z,1003.56
2017-07-24T03:36:50.612Z,1003.54
2017-07-24T03:37:16.728Z,1003.56
2017-07-24T03:37:42.842Z,1003.53
2017-07-24T03:38:09.009Z,1003.59
2017-07-24T03:38:35.133Z,1003.56
2017-07-24T03:39:01.271Z,1003.54
2017-07-24T03:39:27.425Z,1003.59
2017-07-24T03:39:53.605Z,1003.57
2017-07-24T03:40:19.754Z,1003.6
2017-07-24T03:40:45.902Z,1003.58
2017-07-24T03:41:12.018Z,1003.58
2017-07-24T03:41:38.126Z,1003.57
2017-07-24T03:42:04.279Z,1003.56
2017-07-24T03:42:30.422Z,1003.58
2017-07-24T03:42:56.607Z,1003.6
2017-07-24T03:43:22.791Z,1003.56
2017-07-24T03:43:48.903Z,1003.58
2017-07-24T03:44:15.028Z,1003.58
2017-07-24T03:44:41.164Z,1003.56
2017-07-24T03:45:07.345Z,1003.57
2017-07-24T03:45:33.502Z,1003.53
2017-07-24T03:45:59.675Z,1003.55
2017-07-24T03:46:25.857Z,1003.57
2017-07-24T03:46:51.983Z,1003.57
2017-07-24T03:47:18.147Z,1003.52
2017-07-24T03:47:44.271Z,1003.5
2017-07-24T03:48:10.378Z,1003.53
2017-07-24T03:48:36.515Z,1003.52
2017-07-24T03:49:02.668Z,1003.52
2017-07-24T03:49:28.828Z,1003.47
2017-07-24T03:49:54.952Z,1003.5
2017-07-24T03:50:21.143Z,1003.48
2017-07-24T03:50:47.276Z,1003.5
2017-07-24T03:51:13.395Z,1003.5
2017-07-24T03:51:39.526Z,1003.5
2017-07-24T03:52:05.636Z,1003.47
2017-07-24T03:52:31.757Z,1003.48
2017-07-24T03:52:57.916Z,1003.53
2017-07-24T03:53:24.033Z,1003.52
2017-07-24T03:53:50.153Z,1003.47
2017-07-24T03:54:16.261Z,1003.49
2017-07-24T03:54:42.405Z,1003.52
2017-07-24T03:55:08.571Z,1003.47
2017-07-24T03:55:34.708Z,1003.5
2017-07-24T03:56:00.890Z,1003.47
2017-07-24T03:56:27.027Z,1003.49
2017-07-24T03:56:53.161Z,1003.48
2017-07-24T03:57:19.278Z,1003.48
2017-07-24T03:57:45.441Z,1003.48
2017-07-24T03:58:11.561Z,1003.48
2017-07-24T03:58:37.672Z,1003.47
2017-07-24T03:59:03.779Z,1003.48
2017-07-24T03:59:29.928Z,1003.45
2017-07-24T03:59:56.095Z,1003.49
2017-07-24T04:00:22.305Z,1003.45
2017-07-24T04:00:48.404Z,1003.47
2017-07-24T04:01:14.593Z,1003.48
2017-07-24T04:01:40.771Z,1003.47
2017-07-24T04:02:06.934Z,1003.46
2017-07-24T04:02:33.050Z,1003.46
2017-07-24T04:02:59.201Z,1003.47
2017-07-24T04:03:25.337Z,1003.46
2017-07-24T04:03:51.552Z,1003.45
2017-07-24T04:04:17.679Z,1003.5
2017-07-24T04:04:43.818Z,1003.5
2017-07-24T04:05:09.974Z,1003.53
2017-07-24T04:05:36.105Z,1003.5
2017-07-24T04:06:02.204Z,1003.53
2017-07-24T04:06:28.341Z,1003.55
2017-07-24T04:06:54.472Z,1003.55
2017-07-24T04:07:20.562Z,1003.53
2017-07-24T04:07:46.682Z,1003.52
2017-07-24T04:08:12.787Z,1003.52
2017-07-24T04:08:38.910Z,1003.53
2017-07-24T04:09:04.998Z,1003.53
2017-07-24T04:09:31.136Z,1003.53
2017-07-24T04:09:57.253Z,1003.52
2017-07-24T04:10:23.390Z,1003.51
2017-07-24T04:10:49.553Z,1003.52
2017-07-24T04:11:15.680Z,1003.47
2017-07-24T04:11:41.793Z,1003.51
2017-07-24T04:12:07.895Z,1003.52
2017-07-24T04:12:34.030Z,1003.52
2017-07-24T04:13:00.140Z,1003.47
2017-07-24T04:13:26.290Z,1003.47
2017-07-24T04:13:52.391Z,1003.49
2017-07-24T04:14:18.542Z,1003.5
2017-07-24T04:14:44.667Z,1003.5
2017-07-24T04:15:10.807Z,1003.47
2017-07-24T04:15:36.913Z,1003.48
2017-07-24T04:16:03.103Z,1003.5
2017-07-24T04:16:29.213Z,1003.53
2017-07-24T04:16:55.334Z,1003.52
2017-07-24T04:17:21.466Z,1003.5
2017-07-24T04:17:47.607Z,1003.49
2017-07-24T04:18:13.727Z,1003.47
2017-07-24T04:18:39.835Z,1003.46
2017-07-24T04:19:05.926Z,1003.45
2017-07-24T04:19:32.034Z,1003.47
2017-07-24T04:19:58.120Z,1003.46
2017-07-24T04:20:24.299Z,1003.44
2017-07-24T04:20:50.402Z,1003.44
2017-07-24T04:21:16.512Z,1003.42
2017-07-24T04:21:42.657Z,1003.42
2017-07-24T04:22:08.817Z,1003.39
2017-07-24T04:22:34.935Z,1003.36
2017-07-24T04:23:01.079Z,1003.38
2017-07-24T04:23:27.267Z,1003.37
2017-07-24T04:23:53.418Z,1003.36
2017-07-24T04:24:19.533Z,1003.35
2017-07-24T04:24:45.636Z,1003.35
2017-07-24T04:25:11.828Z,1003.37
2017-07-24T04:25:37.963Z,1003.35
2017-07-24T04:26:04.083Z,1003.38
2017-07-24T04:26:30.199Z,1003.38
2017-07-24T04:26:56.362Z,1003.37
2017-07-24T04:27:22.536Z,1003.38
2017-07-24T04:27:48.649Z,1003.37
2017-07-24T04:28:14.779Z,1003.36
2017-07-24T04:28:40.935Z,1003.37
2017-07-24T04:29:07.073Z,1003.37
2017-07-24T04:29:33.229Z,1003.38
2017-07-24T04:29:59.390Z,1003.36
2017-07-24T04:30:25.511Z,1003.34
2017-07-24T04:30:51.635Z,1003.34
2017-07-24T04:31:17.771Z,1003.34
2017-07-24T04:31:43.875Z,1003.32
2017-07-24T04:32:10.002Z,1003.32
2017-07-24T04:32:36.091Z,1003.32
2017-07-24T04:33:02.273Z,1003.33
2017-07-24T04:33:28.407Z,1003.33
2017-07-24T04:33:54.545Z,1003.3
2017-07-24T04:34:20.720Z,1003.3
2017-07-24T04:34:46.855Z,1003.31
2017-07-24T04:35:13.019Z,1003.33
2017-07-24T04:35:39.118Z,1003.32
2017-07-24T04:36:05.267Z,1003.32
2017-07-24T04:36:31.399Z,1003.29
2017-07-24T04:36:57.559Z,1003.3
2017-07-24T04:37:23.669Z,1003.31
2017-07-24T04:37:49.820Z,1003.29
2017-07-24T04:38:15.951Z,1003.31
2017-07-24T04:38:42.065Z,1003.33
2017-07-24T04:39:08.186Z,1003.31
2017-07-24T04:39:34.349Z,1003.31
2017-07-24T04:40:00.470Z,1003.31
2017-07-24T04:40:26.606Z,1003.32
2017-07-24T04:40:52.740Z,1003.3
2017-07-24T04:41:18.862Z,1003.3
2017-07-24T04:41:45.044Z,1003.29
2017-07-24T04:42:11.138Z,1003.31
2017-07-24T04:42:37.231Z,1003.3
2017-07-24T04:43:03.417Z,1003.29
2017-07-24T04:43:29.536Z,1003.32
2017-07-24T04:43:55.651Z,1003.29
2017-07-24T04:44:21.812Z,1003.3
2017-07-24T04:44:47.938Z,1003.32
2017-07-24T04:45:14.029Z,1003.37
2017-07-24T04:45:40.164Z,1003.3
2017-07-24T04:46:06.319Z,1003.33
2017-07-24T04:46:32.458Z,1003.32
2017-07-24T04:46:58.561Z,1003.29
2017-07-24T04:47:24.703Z,1003.33
2017-07-24T04:47:50.813Z,1003.32
2017-07-24T04:48:16.935Z,1003.32
2017-07-24T04:48:43.025Z,1003.31
2017-07-24T04:49:09.157Z,1003.29
2017-07-24T04:49:35.285Z,1003.32
2017-07-24T04:50:01.374Z,1003.31
2017-07-24T04:50:27.527Z,1003.33
2017-07-24T04:50:53.662Z,1003.32
2017-07-24T04:51:19.774Z,1003.33
2017-07-24T04:51:45.900Z,1003.31
2017-07-24T04:52:12.061Z,1003.33
2017-07-24T04:52:38.175Z,1003.29
2017-07-24T04:53:04.298Z,1003.3
2017-07-24T04:53:30.405Z,1003.31
2017-07-24T04:53:56.526Z,1003.27
2017-07-24T04:54:22.643Z,1003.26
2017-07-24T04:54:48.780Z,1003.25
2017-07-24T04:55:14.956Z,1003.25
2017-07-24T04:55:41.118Z,1003.25
2017-07-24T04:56:07.277Z,1003.27
2017-07-24T04:56:33.405Z,1003.27
2017-07-24T04:56:59.569Z,1003.24
2017-07-24T04:57:25.697Z,1003.26
2017-07-24T04:57:51.859Z,1003.25
2017-07-24T04:58:17.980Z,1003.26
2017-07-24T04:58:44.154Z,1003.27
2017-07-24T04:59:10.244Z,1003.2
2017-07-24T04:59:36.403Z,1003.24
2017-07-24T05:00:02.530Z,1003.23
2017-07-24T05:00:28.645Z,1003.23
2017-07-24T05:00:54.776Z,1003.22
2017-07-24T05:01:20.937Z,1003.22
2017-07-24T05:01:47.051Z,1003.18
2017-07-24T05:02:13.221Z,1003.19
2017-07-24T05:02:39.409Z,1003.21
2017-07-24T05:03:05.525Z,1003.16
2017-07-24T05:03:31.690Z,1003.17
2017-07-24T05:03:57.813Z,1003.17
2017-07-24T05:04:23.937Z,1003.15
2017-07-24T05:04:50.071Z,1003.16
2017-07-24T05:05:16.231Z,1003.15
2017-07-24T05:05:42.329Z,1003.11
2017-07-24T05:06:08.517Z,1003.14
2017-07-24T05:06:34.609Z,1003.1
2017-07-24T05:07:00.754Z,1003.14
2017-07-24T05:07:26.912Z,1003.15
2017-07-24T05:07:53.059Z,1003.07
2017-07-24T05:08:19.171Z,1003.1
2017-07-24T05:08:45.309Z,1003.1
2017-07-24T05:09:11.454Z,1003.1
2017-07-24T05:09:37.579Z,1003.1
2017-07-24T05:10:03.693Z,1003.07
2017-07-24T05:10:29.840Z,1003.08
2017-07-24T05:10:56.000Z,1003.07
2017-07-24T05:11:22.174Z,1003.11
2017-07-24T05:11:48.264Z,1003.07
2017-07-24T05:12:14.429Z,1003.08
2017-07-24T05:12:40.548Z,1003.08
2017-07-24T05:13:06.662Z,1003.11
2017-07-24T05:13:32.823Z,1003.07
2017-07-24T05:13:58.981Z,1003.11
2017-07-24T05:14:25.095Z,1003.08
2017-07-24T05:14:51.198Z,1003.1
2017-07-24T05:15:17.362Z,1003.12
2017-07-24T05:15:43.498Z,1003.09
2017-07-24T05:16:09.680Z,1003.08
2017-07-24T05:16:35.816Z,1003.1
2017-07-24T05:17:01.950Z,1003.1
2017-07-24T05:17:28.078Z,1003.08